KM65 weather

CLOSED Wynne Municipal Airport
Wynne, Arkansas, United States

Public forecast

Using degrees Fahrenheit for public forecast. Weather courtesy of forecast.io.

Closest aviation weather report (METAR) to Wynne Municipal Airport

Closest report is West Memphis Municipal Airport, 26.5 nm (49.1 km) ESE. Retrieved 2020/07/08 10:53 UTC (44 minutes ago):

KAWM 081053Z AUTO 19004KT 10SM CLR 23/22 A2995 RMK AO2 SLP137 T02280222

Closest aviation forecast (TAF) to Wynne Municipal Airport

Closest forecast is Jonesboro Municipal Airport, 36.5 nm (67.5 km) N. Retrieved 2020/07/08 06:22 UTC (5 hours ago):

TAF KJBR 080520Z 0806/0906 00000KT P6SM FEW250 FM081500 VRB03KT P6SM SCT100 FM082100 17006KT P6SM VCTS SCT030CB BKN100 FM090000 17005KT P6SM SCT150